Time;durP1;ratioP1;P1;durP2;ratioP2;P2;SDS_P1;SDS_P2;PMS_P1;PMS_P2;Temp;Humidity;BMP_temperature;BMP_pressure;BME280_temperature;BME280_humidity;BME280_pressure;Samples;Min_cycle;Max_cycle;Signal;HPM_P1;HPM_P2
2022/07/24 00:02:03;;;;;;;0.40;0.40;;;16.00;99.90;;;;;;5072425;28;20036;-74
2022/07/24 00:04:29;;;;;;;0.30;0.30;;;16.10;99.90;;;;;;5055145;28;20068;-74
2022/07/24 00:06:54;;;;;;;0.30;0.30;;;16.00;99.90;;;;;;5072473;28;20113;-74
2022/07/24 00:09:20;;;;;;;0.50;0.30;;;16.00;99.90;;;;;;5072313;28;20101;-74
2022/07/24 00:11:46;;;;;;;0.40;0.40;;;16.00;99.90;;;;;;5072340;28;20036;-74
2022/07/24 00:14:11;;;;;;;0.30;0.30;;;16.00;99.90;;;;;;5055594;28;20468;-74
2022/07/24 00:16:38;;;;;;;0.30;0.30;;;16.00;99.90;;;;;;5071605;28;20135;-74
2022/07/24 00:19:03;;;;;;;0.20;0.20;;;16.00;99.90;;;;;;5055765;28;20040;-75
2022/07/24 00:21:29;;;;;;;0.32;0.32;;;15.90;99.90;;;;;;5072021;28;20044;-74
2022/07/24 00:23:55;;;;;;;0.40;0.30;;;15.90;99.90;;;;;;5073166;28;20056;-75
2022/07/24 00:26:20;;;;;;;0.30;0.20;;;15.90;99.90;;;;;;5038656;28;20072;-74
2022/07/24 00:28:48;;;;;;;0.50;0.30;;;15.80;99.90;;;;;;5055537;28;20048;-74
2022/07/24 00:31:13;;;;;;;0.40;0.40;;;15.90;99.90;;;;;;5038361;28;20114;-74
2022/07/24 00:33:39;;;;;;;0.40;0.38;;;15.90;99.90;;;;;;5071297;28;20129;-74
2022/07/24 00:36:05;;;;;;;0.32;0.30;;;15.80;99.90;;;;;;5055335;28;20052;-74
2022/07/24 00:38:31;;;;;;;0.63;0.40;;;15.80;99.90;;;;;;5071631;28;20462;-74
2022/07/24 00:40:56;;;;;;;0.38;0.38;;;15.80;99.90;;;;;;5071690;28;20143;-74
2022/07/24 00:43:22;;;;;;;0.40;0.40;;;15.80;99.90;;;;;;5071527;28;20050;-74
2022/07/24 00:45:48;;;;;;;0.40;0.35;;;15.80;99.90;;;;;;5071672;28;20129;-75
2022/07/24 00:48:14;;;;;;;0.60;0.30;;;15.80;99.90;;;;;;5071258;28;20480;-74
2022/07/24 00:50:40;;;;;;;0.25;0.22;;;15.80;99.90;;;;;;5054408;28;20044;-74
2022/07/24 00:53:07;;;;;;;0.52;0.30;;;15.80;99.90;;;;;;5071073;28;20036;-75
2022/07/24 00:55:34;;;;;;;0.45;0.40;;;15.80;99.90;;;;;;5071234;28;20059;-74
2022/07/24 00:57:59;;;;;;;0.60;0.50;;;15.80;99.90;;;;;;5071400;28;20454;-74
2022/07/24 01:00:25;;;;;;;0.38;0.28;;;15.80;99.90;;;;;;5071053;28;20044;-74
2022/07/24 01:02:51;;;;;;;0.50;0.50;;;15.70;99.90;;;;;;5071331;28;20090;-74
2022/07/24 01:05:18;;;;;;;0.30;0.30;;;15.80;99.90;;;;;;5070941;28;20480;-74
2022/07/24 01:07:43;;;;;;;0.60;0.50;;;15.80;99.90;;;;;;5071146;28;20048;-74
2022/07/24 01:10:10;;;;;;;0.60;0.60;;;15.80;99.90;;;;;;5070218;28;20503;-74
2022/07/24 01:12:36;;;;;;;;;;;15.80;99.90;;;;;;5071217;28;20438;-74
2022/07/24 01:15:04;;;;;;;0.30;0.30;;;15.80;99.90;;;;;;5070905;28;19920;-74
2022/07/24 01:17:36;;;;;;;0.38;0.38;;;15.80;99.90;;;;;;5054037;28;20048;-74
2022/07/24 01:20:04;;;;;;;0.38;0.38;;;15.80;99.90;;;;;;5070742;28;20040;-75
2022/07/24 01:22:30;;;;;;;0.50;0.43;;;15.80;99.90;;;;;;5070841;28;20044;-75
2022/07/24 01:24:56;;;;;;;0.40;0.30;;;15.80;99.90;;;;;;5070576;28;20413;-74
2022/07/24 01:27:23;;;;;;;0.25;0.25;;;15.70;99.90;;;;;;5104325;28;20044;-74
2022/07/24 01:29:50;;;;;;;0.30;0.20;;;15.70;99.90;;;;;;5070418;28;20056;-74
2022/07/24 01:32:15;;;;;;;0.40;0.40;;;15.70;99.90;;;;;;5071610;28;20076;-74
2022/07/24 01:34:41;;;;;;;0.65;0.30;;;15.70;99.90;;;;;;5104387;28;20083;-74
2022/07/24 01:37:07;;;;;;;0.80;0.40;;;15.70;99.90;;;;;;5104011;28;20044;-74
2022/07/24 01:39:33;;;;;;;0.30;0.30;;;15.70;99.90;;;;;;5103938;28;20036;-74
2022/07/24 01:41:58;;;;;;;0.20;0.20;;;15.70;99.90;;;;;;5053439;28;20424;-74
2022/07/24 01:44:24;;;;;;;0.30;0.30;;;15.70;99.90;;;;;;5070096;28;20052;-74
2022/07/24 01:46:50;;;;;;;0.20;0.20;;;15.70;99.90;;;;;;5053566;28;20051;-74
2022/07/24 01:49:16;;;;;;;0.30;0.30;;;15.70;99.90;;;;;;5070314;28;20056;-74
2022/07/24 01:51:41;;;;;;;0.20;0.20;;;15.70;99.90;;;;;;5070199;28;20040;-74
2022/07/24 01:54:07;;;;;;;0.30;0.30;;;15.60;99.90;;;;;;5070140;28;20032;-74
2022/07/24 01:56:33;;;;;;;0.40;0.40;;;15.70;99.90;;;;;;5053677;28;20480;-74
2022/07/24 01:58:59;;;;;;;;;;;15.70;99.90;;;;;;5070160;28;20056;-75
2022/07/24 02:01:26;;;;;;;0.57;0.57;;;15.70;99.90;;;;;;5070000;28;19944;-75
2022/07/24 02:03:51;;;;;;;0.40;0.40;;;15.60;99.90;;;;;;5070028;28;20046;-74
2022/07/24 02:06:18;;;;;;;0.30;0.30;;;15.70;99.90;;;;;;5070184;28;20048;-74
2022/07/24 02:08:44;;;;;;;0.30;0.30;;;15.60;99.90;;;;;;5103790;28;20048;-74
2022/07/24 02:11:10;;;;;;;;;;;15.70;99.90;;;;;;5070197;28;20131;-75
2022/07/24 02:13:36;;;;;;;0.40;0.40;;;15.70;99.90;;;;;;5069754;28;20011;-74
2022/07/24 02:16:02;;;;;;;0.30;0.30;;;15.70;99.90;;;;;;5069967;28;20041;-74
2022/07/24 02:18:28;;;;;;;;;;;15.70;99.90;;;;;;5070369;28;20033;-74
2022/07/24 02:20:54;;;;;;;0.63;0.45;;;15.70;99.90;;;;;;5068877;28;20034;-74
2022/07/24 02:23:20;;;;;;;0.50;0.50;;;15.70;99.90;;;;;;5070127;28;20044;-74
2022/07/24 02:25:49;;;;;;;;;;;15.80;99.90;;;;;;5070185;28;20063;-74
2022/07/24 02:28:16;;;;;;;0.50;0.50;;;15.80;99.90;;;;;;5103026;28;20368;-74
2022/07/24 02:30:43;;;;;;;0.75;0.60;;;15.80;99.90;;;;;;5114974;27;20052;-74
2022/07/24 02:33:09;;;;;;;0.55;0.50;;;15.80;99.90;;;;;;5089856;28;20052;-74
2022/07/24 02:35:34;;;;;;;0.63;0.60;;;15.70;99.90;;;;;;5089855;28;20390;-74
2022/07/24 02:38:00;;;;;;;0.40;0.40;;;15.80;99.90;;;;;;5123665;27;20047;-74
2022/07/24 02:40:26;;;;;;;0.50;0.50;;;15.70;99.90;;;;;;5090004;28;20047;-74
2022/07/24 02:42:52;;;;;;;0.40;0.40;;;15.80;99.90;;;;;;5088864;28;20384;-74
2022/07/24 02:45:18;;;;;;;0.40;0.40;;;15.80;99.90;;;;;;5123612;28;20052;-74
2022/07/24 02:47:51;;;;;;;;;;;15.80;99.90;;;;;;5107020;28;20047;-74
2022/07/24 02:50:18;;;;;;;0.50;0.40;;;15.80;99.90;;;;;;5123591;28;19920;-74
2022/07/24 02:52:44;;;;;;;0.38;0.30;;;15.80;99.90;;;;;;5089524;28;20040;-74
2022/07/24 02:55:09;;;;;;;0.40;0.40;;;15.80;99.90;;;;;;5106428;28;20570;-74
2022/07/24 02:57:36;;;;;;;0.40;0.40;;;15.70;99.90;;;;;;5106085;28;20135;-74
2022/07/24 03:00:06;;;;;;;0.20;0.20;;;15.70;99.90;;;;;;5072503;28;20036;-74
2022/07/24 03:02:31;;;;;;;0.30;0.30;;;15.70;99.90;;;;;;5123740;28;20040;-74
2022/07/24 03:04:57;;;;;;;0.40;0.40;;;15.80;99.90;;;;;;5089394;28;20474;-74
2022/07/24 03:07:23;;;;;;;0.50;0.50;;;15.70;99.90;;;;;;5123403;28;20127;-74
2022/07/24 03:09:48;;;;;;;0.70;0.70;;;15.70;99.90;;;;;;5072598;28;20093;-74
2022/07/24 03:12:14;;;;;;;0.60;0.60;;;15.70;99.90;;;;;;5089147;28;20047;-74
2022/07/24 03:14:40;;;;;;;0.60;0.60;;;15.70;99.90;;;;;;5123469;28;20812;-74
2022/07/24 03:17:05;;;;;;;0.50;0.40;;;15.70;99.90;;;;;;5072767;28;20105;-74
2022/07/24 03:19:32;;;;;;;0.45;0.40;;;15.70;99.90;;;;;;5123285;27;20044;-75
2022/07/24 03:21:57;;;;;;;0.55;0.55;;;15.70;99.90;;;;;;5123118;28;20044;-74
2022/07/24 03:24:23;;;;;;;0.75;0.60;;;15.70;99.90;;;;;;5123177;28;20040;-74
2022/07/24 03:26:49;;;;;;;0.35;0.30;;;15.70;99.90;;;;;;5122716;27;20040;-74
2022/07/24 03:29:15;;;;;;;0.77;0.70;;;15.70;99.90;;;;;;5089547;28;20048;-74
2022/07/24 03:31:40;;;;;;;0.60;0.60;;;15.70;99.90;;;;;;5069450;28;20517;-74
2022/07/24 03:34:06;;;;;;;0.60;0.50;;;15.70;99.90;;;;;;5055998;28;20048;-75
2022/07/24 03:36:32;;;;;;;0.40;0.40;;;15.70;99.90;;;;;;5106628;28;20040;-74
2022/07/24 03:38:58;;;;;;;0.60;0.60;;;15.70;99.90;;;;;;5072818;28;20491;-74
2022/07/24 03:41:24;;;;;;;0.40;0.40;;;15.70;99.90;;;;;;5072324;28;20037;-74
2022/07/24 03:43:50;;;;;;;0.80;0.50;;;15.70;99.90;;;;;;5072536;28;20131;-74
2022/07/24 03:46:15;;;;;;;0.75;0.70;;;15.70;99.90;;;;;;5072547;28;20106;-74
2022/07/24 03:48:41;;;;;;;0.80;0.70;;;15.70;99.90;;;;;;5106623;28;20056;-74
2022/07/24 03:51:07;;;;;;;0.65;0.60;;;15.70;99.90;;;;;;5072504;28;20048;-74
2022/07/24 03:53:32;;;;;;;0.50;0.45;;;15.70;99.90;;;;;;5106347;28;20574;-74
2022/07/24 03:55:58;;;;;;;0.60;0.60;;;15.70;99.90;;;;;;5072126;28;20487;-74
2022/07/24 03:58:24;;;;;;;0.55;0.55;;;15.70;99.90;;;;;;5055987;28;20429;-74
2022/07/24 04:00:49;;;;;;;0.80;0.70;;;15.80;99.90;;;;;;5106127;28;20089;-74
2022/07/24 04:03:15;;;;;;;0.40;0.40;;;15.70;99.90;;;;;;5089596;28;20044;-74
2022/07/24 04:05:41;;;;;;;0.68;0.60;;;15.70;99.90;;;;;;5105872;28;20051;-74
2022/07/24 04:08:06;;;;;;;0.63;0.63;;;15.80;99.90;;;;;;5055615;28;20116;-74
2022/07/24 04:10:32;;;;;;;0.85;0.80;;;15.80;99.90;;;;;;5054958;28;20415;-74
2022/07/24 04:12:57;;;;;;;0.65;0.65;;;15.80;99.90;;;;;;5088981;28;20173;-74
2022/07/24 04:15:23;;;;;;;0.63;0.52;;;15.80;99.90;;;;;;5105780;28;20064;-74
2022/07/24 04:17:49;;;;;;;0.68;0.52;;;15.90;99.90;;;;;;5105848;28;20043;-74
2022/07/24 04:20:14;;;;;;;0.70;0.63;;;15.80;99.90;;;;;;5072209;28;20047;-74
2022/07/24 04:22:40;;;;;;;0.60;0.60;;;15.80;99.90;;;;;;5071802;28;20475;-74
2022/07/24 04:25:07;;;;;;;0.50;0.50;;;15.80;99.90;;;;;;5071830;28;20033;-74
2022/07/24 04:27:33;;;;;;;0.43;0.43;;;15.90;99.90;;;;;;5105507;28;20055;-74
2022/07/24 04:29:58;;;;;;;0.75;0.60;;;15.80;99.90;;;;;;5054874;28;20139;-74
2022/07/24 04:32:25;;;;;;;0.45;0.45;;;15.80;99.90;;;;;;5071535;28;20177;-74
2022/07/24 04:34:50;;;;;;;0.60;0.60;;;15.80;99.90;;;;;;5071610;28;20112;-74
2022/07/24 04:37:16;;;;;;;0.50;0.50;;;15.90;99.90;;;;;;5071497;28;20040;-75
2022/07/24 04:39:42;;;;;;;0.70;0.60;;;15.90;99.90;;;;;;5071892;28;20052;-74
2022/07/24 04:42:08;;;;;;;0.68;0.50;;;15.90;99.90;;;;;;5054436;28;20493;-74
2022/07/24 04:44:33;;;;;;;0.60;0.60;;;15.90;99.90;;;;;;5070991;28;20079;-74
2022/07/24 04:46:59;;;;;;;0.63;0.40;;;15.90;99.90;;;;;;5105208;28;20048;-74
2022/07/24 04:49:24;;;;;;;0.30;0.30;;;16.00;99.90;;;;;;5071247;28;20060;-74
2022/07/24 04:51:50;;;;;;;0.43;0.43;;;16.00;99.90;;;;;;5105130;28;20050;-74
2022/07/24 04:54:16;;;;;;;0.40;0.40;;;16.00;99.90;;;;;;5088178;28;20079;-74
2022/07/24 04:56:42;;;;;;;0.50;0.50;;;16.00;99.90;;;;;;5070860;28;20040;-74
2022/07/24 04:59:07;;;;;;;0.40;0.40;;;16.10;99.90;;;;;;5104902;28;20044;-73
2022/07/24 05:01:33;;;;;;;0.60;0.60;;;16.10;99.90;;;;;;5071233;28;20036;-73
2022/07/24 05:03:59;;;;;;;1.05;0.60;;;16.20;99.90;;;;;;5071284;28;20040;-73
2022/07/24 05:06:25;;;;;;;0.73;0.70;;;16.20;99.90;;;;;;5054258;28;20518;-73
2022/07/24 05:08:51;;;;;;;0.90;0.70;;;16.30;99.90;;;;;;5071121;28;20051;-73
2022/07/24 05:11:16;;;;;;;;;;;16.40;99.90;;;;;;5071000;28;20093;-73
2022/07/24 05:13:42;;;;;;;0.80;0.80;;;16.50;99.90;;;;;;5070980;28;20017;-73
2022/07/24 05:16:08;;;;;;;0.75;0.70;;;16.60;99.90;;;;;;5104746;28;20040;-73
2022/07/24 05:18:33;;;;;;;0.95;0.70;;;16.70;99.90;;;;;;5104611;28;20089;-74
2022/07/24 05:20:59;;;;;;;0.82;0.70;;;16.80;99.90;;;;;;5104503;28;20040;-73
2022/07/24 05:23:25;;;;;;;0.60;0.60;;;16.80;99.90;;;;;;5054419;28;20051;-73
2022/07/24 05:25:51;;;;;;;1.50;0.80;;;16.90;99.90;;;;;;5053398;28;20049;-73
2022/07/24 05:28:17;;;;;;;0.63;0.60;;;17.00;99.90;;;;;;5104489;28;20044;-73
2022/07/24 05:30:43;;;;;;;;;;;17.10;99.90;;;;;;5116598;27;20064;-73
2022/07/24 05:33:08;;;;;;;0.70;0.68;;;17.10;99.90;;;;;;5124837;27;20359;-74
2022/07/24 05:35:34;;;;;;;1.48;1.10;;;17.10;99.90;;;;;;5124959;27;20048;-74
2022/07/24 05:38:00;;;;;;;1.58;1.10;;;17.10;99.90;;;;;;5124701;27;20059;-73
2022/07/24 05:40:25;;;;;;;0.85;0.80;;;17.20;99.90;;;;;;5090324;28;20101;-74
2022/07/24 05:42:51;;;;;;;1.40;1.10;;;17.30;99.90;;;;;;5107449;28;20136;-73
2022/07/24 05:45:17;;;;;;;1.02;0.80;;;17.30;99.90;;;;;;5124799;27;20083;-74
2022/07/24 05:47:43;;;;;;;0.80;0.80;;;17.30;99.90;;;;;;5124299;27;20044;-74
2022/07/24 05:50:10;;;;;;;0.88;0.82;;;17.30;99.90;;;;;;5073757;28;20130;-74
2022/07/24 05:52:36;;;;;;;1.15;1.02;;;17.40;99.90;;;;;;5073575;28;20180;-74
2022/07/24 05:55:02;;;;;;;1.08;0.90;;;17.50;99.90;;;;;;5123814;27;20517;-74
2022/07/24 05:57:28;;;;;;;1.00;0.90;;;17.50;99.90;;;;;;5090060;28;20463;-74
2022/07/24 05:59:54;;;;;;;0.98;0.88;;;17.50;99.90;;;;;;5090526;28;20118;-74
2022/07/24 06:02:20;;;;;;;1.02;0.93;;;17.50;99.90;;;;;;5090135;28;20039;-74
2022/07/24 06:04:45;;;;;;;0.70;0.70;;;17.60;99.90;;;;;;5090120;28;20047;-73
2022/07/24 06:07:11;;;;;;;0.85;0.85;;;17.70;99.90;;;;;;5073322;28;20044;-74
2022/07/24 06:09:37;;;;;;;1.88;1.17;;;17.80;99.90;;;;;;5106821;28;20039;-74
2022/07/24 06:12:04;;;;;;;0.80;0.80;;;18.00;99.90;;;;;;5124059;27;20036;-73
2022/07/24 06:14:30;;;;;;;1.10;1.00;;;18.10;99.90;;;;;;5124130;27;20055;-74
2022/07/24 06:16:56;;;;;;;1.48;1.10;;;18.20;99.90;;;;;;5106983;28;20043;-74
2022/07/24 06:19:22;;;;;;;;;;;18.30;99.90;;;;;;5073706;28;20036;-73
2022/07/24 06:21:47;;;;;;;1.75;1.20;;;18.30;99.90;;;;;;5124218;27;19927;-74
2022/07/24 06:24:14;;;;;;;;;;;18.50;99.90;;;;;;5090434;28;20724;-73
2022/07/24 06:26:40;;;;;;;2.40;1.60;;;18.60;99.90;;;;;;5106529;28;19915;-74
2022/07/24 06:29:05;;;;;;;2.22;1.70;;;18.80;99.90;;;;;;5124129;27;20055;-73
2022/07/24 06:31:31;;;;;;;1.95;1.65;;;19.00;99.90;;;;;;5038068;28;20076;-74
2022/07/24 06:33:57;;;;;;;1.48;1.38;;;19.00;99.90;;;;;;5069716;28;20044;-73
2022/07/24 06:36:23;;;;;;;;;;;19.10;99.90;;;;;;5053363;28;20048;-74
2022/07/24 06:38:48;;;;;;;1.60;1.50;;;19.20;99.90;;;;;;5069532;28;19981;-73
2022/07/24 06:41:14;;;;;;;;;;;19.20;99.90;;;;;;5053004;28;20041;-73
2022/07/24 06:43:40;;;;;;;1.60;1.50;;;19.30;99.90;;;;;;5053186;28;19923;-73
2022/07/24 06:46:06;;;;;;;;;;;19.30;99.90;;;;;;5053628;28;20067;-73
2022/07/24 06:48:32;;;;;;;1.55;1.25;;;19.40;99.90;;;;;;5103552;28;19927;-74
2022/07/24 06:50:57;;;;;;;;;;;19.60;99.90;;;;;;5070477;28;20048;-74
2022/07/24 06:53:23;;;;;;;1.83;1.48;;;19.70;99.90;;;;;;5070224;28;19924;-74
2022/07/24 06:55:53;;;;;;;;;;;19.80;99.90;;;;;;5103893;28;20115;-74
2022/07/24 06:58:19;;;;;;;2.55;2.20;;;19.90;99.90;;;;;;5103726;28;20461;-74
2022/07/24 07:00:44;;;;;;;;;;;19.90;99.90;;;;;;5104118;28;20044;-74
2022/07/24 07:03:10;;;;;;;2.83;2.30;;;20.00;99.90;;;;;;5069512;28;20087;-75
2022/07/24 07:05:35;;;;;;;;;;;20.10;99.90;;;;;;5103919;28;20047;-74
2022/07/24 07:08:01;;;;;;;1.50;1.40;;;20.20;99.90;;;;;;5072090;28;19920;-75
2022/07/24 07:10:27;;;;;;;;;;;20.40;99.90;;;;;;5107466;28;20044;-74
2022/07/24 07:12:54;;;;;;;1.95;1.20;;;20.50;99.90;;;;;;5073359;28;19997;-74
2022/07/24 07:15:20;;;;;;;1.83;1.60;;;20.70;99.90;;;;;;5090464;28;20048;-74
2022/07/24 07:17:45;;;;;;;;;;;20.70;99.90;;;;;;5107058;28;20036;-75
2022/07/24 07:20:12;;;;;;;1.50;1.38;;;20.80;99.90;;;;;;5073401;28;19923;-74
2022/07/24 07:22:38;;;;;;;1.52;1.30;;;20.90;99.90;;;;;;5107044;28;20051;-74
2022/07/24 07:25:06;;;;;;;2.17;1.60;;;20.90;99.90;;;;;;5072768;28;20040;-73
2022/07/24 07:27:31;;;;;;;1.67;1.33;;;21.20;99.90;;;;;;5073002;28;20052;-74
2022/07/24 07:29:57;;;;;;;;;;;21.30;99.90;;;;;;5056701;28;20065;-74
2022/07/24 07:32:23;;;;;;;2.10;1.83;;;21.60;99.90;;;;;;5106758;28;19970;-74
2022/07/24 07:34:48;;;;;;;;;;;21.80;99.90;;;;;;5056889;28;20036;-73
2022/07/24 07:37:14;;;;;;;4.28;2.17;;;22.10;99.90;;;;;;5106964;28;19981;-73
2022/07/24 07:39:40;;;;;;;2.30;2.00;;;22.40;99.90;;;;;;5056359;28;20494;-74
2022/07/24 07:42:05;;;;;;;;;;;22.80;99.90;;;;;;5072587;28;20037;-74
2022/07/24 07:44:31;;;;;;;2.85;2.17;;;22.90;99.90;;;;;;5072887;28;20235;-74
2022/07/24 07:46:57;;;;;;;2.20;1.90;;;22.80;99.90;;;;;;5056134;28;20040;-74
2022/07/24 07:49:22;;;;;;;2.67;1.60;;;22.60;99.90;;;;;;5073922;28;20033;-74
2022/07/24 07:51:51;;;;;;;1.90;1.60;;;22.50;99.90;;;;;;5055929;28;20036;-74
2022/07/24 07:54:17;;;;;;;2.30;1.48;;;22.40;99.90;;;;;;5056253;28;20066;-74
2022/07/24 07:56:43;;;;;;;1.92;1.40;;;22.30;99.90;;;;;;5072387;28;20372;-74
2022/07/24 07:59:09;;;;;;;1.48;1.38;;;22.30;99.90;;;;;;5106362;28;20047;-74
2022/07/24 08:01:35;;;;;;;1.77;1.50;;;22.30;99.90;;;;;;5106201;28;20039;-74
2022/07/24 08:04:01;;;;;;;1.55;1.38;;;22.30;99.90;;;;;;5072355;28;20045;-73
2022/07/24 08:06:27;;;;;;;1.48;1.25;;;22.40;99.90;;;;;;5106426;28;20044;-74
2022/07/24 08:08:53;;;;;;;1.30;1.20;;;22.50;99.90;;;;;;5038920;28;20402;-74
2022/07/24 08:11:18;;;;;;;2.10;1.48;;;22.50;99.90;;;;;;5104602;28;20047;-74
2022/07/24 08:13:44;;;;;;;1.50;1.20;;;22.70;99.90;;;;;;5071542;28;20036;-74
2022/07/24 08:16:10;;;;;;;1.33;1.00;;;23.00;99.90;;;;;;5071691;28;20055;-73
2022/07/24 08:18:35;;;;;;;2.60;1.88;;;23.40;99.90;;;;;;5064261;28;20117;-73
2022/07/24 08:21:01;;;;;;;1.60;1.48;;;23.50;99.90;;;;;;5106131;28;20132;-73
2022/07/24 08:23:27;;;;;;;1.77;1.40;;;24.00;99.90;;;;;;5055558;28;20097;-74
2022/07/24 08:25:52;;;;;;;1.52;1.42;;;24.20;98.70;;;;;;5105637;28;20037;-73
2022/07/24 08:28:18;;;;;;;1.60;1.42;;;24.10;98.40;;;;;;5071577;28;20085;-74
2022/07/24 08:30:44;;;;;;;1.35;1.25;;;24.00;98.90;;;;;;5082624;28;20064;-74
2022/07/24 08:33:10;;;;;;;1.45;1.33;;;24.10;97.90;;;;;;5091911;28;20128;-73
2022/07/24 08:35:36;;;;;;;1.48;1.30;;;24.20;98.60;;;;;;5092001;28;20051;-74
2022/07/24 08:38:02;;;;;;;1.55;1.08;;;24.20;98.10;;;;;;5091692;28;20044;-74
2022/07/24 08:40:34;;;;;;;1.38;1.27;;;24.10;97.70;;;;;;5091498;28;20071;-74
2022/07/24 08:43:00;;;;;;;1.90;1.70;;;24.00;97.50;;;;;;5126125;27;20055;-74
2022/07/24 08:45:27;;;;;;;1.50;1.33;;;23.80;98.40;;;;;;5126265;27;20514;-73
2022/07/24 08:47:55;;;;;;;1.60;1.40;;;23.80;98.70;;;;;;5125802;27;20055;-74
2022/07/24 08:50:21;;;;;;;1.40;1.30;;;23.80;98.90;;;;;;5075169;28;20109;-73
2022/07/24 08:52:48;;;;;;;1.45;1.15;;;24.20;99.80;;;;;;5125400;27;20138;-74
2022/07/24 08:55:14;;;;;;;1.52;1.27;;;24.40;98.80;;;;;;5091878;28;20115;-73
2022/07/24 08:57:40;;;;;;;1.35;1.20;;;24.40;98.20;;;;;;5091343;28;20046;-73
2022/07/24 09:00:06;;;;;;;2.13;1.48;;;24.30;98.20;;;;;;5090872;28;20036;-73
2022/07/24 09:02:33;;;;;;;2.08;1.30;;;24.20;97.80;;;;;;5074634;28;20122;-74
2022/07/24 09:05:02;;;;;;;1.40;1.30;;;24.20;98.20;;;;;;5091150;28;20562;-74
2022/07/24 09:07:29;;;;;;;1.90;1.42;;;24.30;97.70;;;;;;5108450;28;20043;-73
2022/07/24 09:10:04;;;;;;;1.38;1.27;;;24.50;98.10;;;;;;5074463;28;20051;-73
2022/07/24 09:12:32;;;;;;;1.25;1.15;;;24.40;98.10;;;;;;5074280;28;20043;-74
2022/07/24 09:14:59;;;;;;;2.35;1.40;;;24.30;97.80;;;;;;5125176;27;20048;-74
2022/07/24 09:17:25;;;;;;;1.80;1.50;;;24.20;97.70;;;;;;5125446;27;20435;-73
2022/07/24 09:19:56;;;;;;;1.90;1.45;;;24.10;97.70;;;;;;5125849;27;20086;-73
2022/07/24 09:22:32;;;;;;;1.45;1.33;;;24.10;98.10;;;;;;5125120;27;20044;-74
2022/07/24 09:25:13;;;;;;;1.70;1.23;;;24.10;98.20;;;;;;5091002;28;20451;-73
2022/07/24 09:27:50;;;;;;;1.40;1.30;;;24.40;98.70;;;;;;5092370;28;20043;-73
2022/07/24 09:30:34;;;;;;;1.90;1.70;;;24.50;98.20;;;;;;5082617;28;20164;-73
2022/07/24 09:33:21;;;;;;;2.13;1.73;;;24.90;97.80;;;;;;5070818;28;20080;-74
2022/07/24 09:35:50;;;;;;;2.25;1.60;;;25.20;96.60;;;;;;5071992;28;20072;-73
2022/07/24 09:38:21;;;;;;;2.08;1.60;;;25.00;96.60;;;;;;5070650;28;20048;-74
2022/07/24 09:40:55;;;;;;;2.15;1.58;;;25.00;96.60;;;;;;5070468;28;20045;-74
2022/07/24 09:43:25;;;;;;;1.60;1.48;;;25.10;96.80;;;;;;5070217;28;20041;-74
2022/07/24 09:45:55;;;;;;;2.00;1.60;;;25.20;96.90;;;;;;5070041;28;20516;-74
2022/07/24 09:48:33;;;;;;;1.58;1.30;;;25.50;96.60;;;;;;5070251;28;20538;-74
2022/07/24 09:51:04;;;;;;;2.35;1.15;;;25.80;97.30;;;;;;5070186;28;20048;-74
2022/07/24 09:53:32;;;;;;;1.40;1.10;;;26.20;96.70;;;;;;5070301;28;20051;-73
2022/07/24 09:56:04;;;;;;;1.50;1.20;;;26.40;96.10;;;;;;5070212;28;20131;-74
2022/07/24 09:58:31;;;;;;;1.90;1.35;;;26.40;95.50;;;;;;5070053;28;20040;-74
2022/07/24 10:01:00;;;;;;;2.15;1.30;;;26.10;95.70;;;;;;5069632;28;20419;-74
2022/07/24 10:03:28;;;;;;;2.03;1.60;;;26.20;95.70;;;;;;5103977;28;20052;-73
2022/07/24 10:05:56;;;;;;;2.40;1.23;;;26.10;95.60;;;;;;5070139;28;20101;-74
2022/07/24 10:08:22;;;;;;;2.80;1.50;;;26.10;95.10;;;;;;5104118;28;20152;-74
2022/07/24 10:10:50;;;;;;;2.38;1.48;;;25.80;95.20;;;;;;5069798;28;20105;-74
2022/07/24 10:13:16;;;;;;;1.80;1.33;;;25.80;95.30;;;;;;5071194;28;20049;-74
2022/07/24 10:16:00;;;;;;;1.20;1.10;;;25.80;95.40;;;;;;5070797;28;20040;-73
2022/07/24 10:18:49;;;;;;;1.58;1.20;;;25.60;95.00;;;;;;5103672;28;20541;-73
2022/07/24 10:21:21;;;;;;;2.47;1.33;;;25.70;95.60;;;;;;5103449;28;20093;-73
2022/07/24 10:24:05;;;;;;;1.27;1.17;;;25.70;95.50;;;;;;5103568;28;20108;-74
2022/07/24 10:26:45;;;;;;;1.33;1.15;;;25.60;95.00;;;;;;5103345;28;20131;-74
2022/07/24 10:29:15;;;;;;;2.30;1.40;;;25.50;95.30;;;;;;5069582;28;20055;-74
2022/07/24 10:31:55;;;;;;;1.30;1.20;;;25.30;95.50;;;;;;5123007;27;20835;-74
2022/07/24 10:34:24;;;;;;;1.25;1.15;;;25.40;95.50;;;;;;5123422;27;20048;-74
2022/07/24 10:37:11;;;;;;;2.05;1.20;;;25.50;95.60;;;;;;5089707;28;20068;-74
2022/07/24 10:39:58;;;;;;;1.52;1.17;;;25.50;95.70;;;;;;5123831;27;20047;-73
2022/07/24 10:42:23;;;;;;;;;;;25.70;95.60;;;;;;5089249;28;20044;-73
2022/07/24 10:45:15;;;;;;;2.73;1.40;;;25.70;95.10;;;;;;5123660;27;19981;-73
2022/07/24 10:47:41;;;;;;;2.90;1.50;;;25.80;94.70;;;;;;5106337;28;20517;-74
2022/07/24 10:50:06;;;;;;;2.20;1.40;;;26.10;95.20;;;;;;5123596;28;20059;-73
2022/07/24 10:52:34;;;;;;;3.40;1.20;;;26.30;94.30;;;;;;5123688;28;20097;-74
2022/07/24 10:55:32;;;;;;;3.97;1.50;;;26.60;93.80;;;;;;5123371;28;20036;-73
2022/07/24 10:58:15;;;;;;;1.27;1.10;;;26.40;93.30;;;;;;5089497;28;20082;-73
2022/07/24 11:00:47;;;;;;;1.60;1.08;;;26.30;94.00;;;;;;5089421;28;20052;-74
2022/07/24 11:03:24;;;;;;;1.42;1.02;;;26.10;94.40;;;;;;5123591;28;20048;-73
2022/07/24 11:06:10;;;;;;;2.42;1.40;;;25.90;94.20;;;;;;5072526;28;20052;-73
2022/07/24 11:08:49;;;;;;;1.42;1.30;;;26.00;94.50;;;;;;5123432;28;20585;-73
2022/07/24 11:11:18;;;;;;;1.80;1.33;;;26.30;94.40;;;;;;5088936;28;20395;-73
2022/07/24 11:13:46;;;;;;;1.65;1.30;;;26.20;94.00;;;;;;5123499;28;20044;-74
2022/07/24 11:16:17;;;;;;;1.45;1.20;;;26.20;94.60;;;;;;5123351;28;20117;-73
2022/07/24 11:19:02;;;;;;;2.35;1.30;;;26.50;94.20;;;;;;5123405;28;20063;-73
2022/07/24 11:21:42;;;;;;;1.53;1.23;;;26.80;94.10;;;;;;5089051;28;20047;-73
2022/07/24 11:24:17;;;;;;;1.55;1.30;;;26.90;94.00;;;;;;5123442;28;20327;-73
2022/07/24 11:26:50;;;;;;;1.40;1.20;;;27.30;94.00;;;;;;5123394;28;20530;-73
2022/07/24 11:29:29;;;;;;;1.20;1.00;;;27.40;93.70;;;;;;5089127;28;20092;-73
2022/07/24 11:32:22;;;;;;;1.58;1.13;;;27.60;93.40;;;;;;5051961;28;20049;-74
2022/07/24 11:34:50;;;;;;;1.67;1.30;;;27.70;93.30;;;;;;5068877;28;20048;-73
2022/07/24 11:37:17;;;;;;;1.70;1.40;;;27.80;93.20;;;;;;5068890;28;20102;-73
2022/07/24 11:39:45;;;;;;;1.48;1.20;;;27.70;92.50;;;;;;5085881;28;20036;-74
2022/07/24 11:42:15;;;;;;;1.42;1.30;;;27.80;92.70;;;;;;5102935;28;20045;-73
2022/07/24 11:44:44;;;;;;;2.55;1.30;;;27.80;93.20;;;;;;5102734;28;20132;-74
2022/07/24 11:47:18;;;;;;;1.90;1.58;;;28.00;92.40;;;;;;5068199;28;20507;-73
2022/07/24 11:49:53;;;;;;;1.60;1.27;;;28.10;91.60;;;;;;5102703;28;20135;-74
2022/07/24 11:52:24;;;;;;;1.80;1.40;;;28.20;92.50;;;;;;5068917;28;20041;-74
2022/07/24 11:54:52;;;;;;;1.52;1.30;;;28.20;91.70;;;;;;5072053;28;20467;-73
2022/07/24 11:57:27;;;;;;;2.35;1.10;;;28.30;91.80;;;;;;5072503;28;20135;-74
2022/07/24 11:59:54;;;;;;;1.40;1.30;;;28.30;91.60;;;;;;5072207;28;20550;-74
2022/07/24 12:02:21;;;;;;;2.03;1.40;;;28.50;91.20;;;;;;5055589;28;20442;-74
2022/07/24 12:04:48;;;;;;;1.45;1.20;;;28.20;91.20;;;;;;5072287;28;20556;-74
2022/07/24 12:07:23;;;;;;;4.25;1.40;;;28.30;91.00;;;;;;5071753;28;20087;-73
2022/07/24 12:09:54;;;;;;;1.75;1.30;;;28.10;91.20;;;;;;5072382;28;20048;-73
2022/07/24 12:12:23;;;;;;;1.70;1.30;;;27.90;91.10;;;;;;5072283;28;20340;-74
2022/07/24 12:14:51;;;;;;;1.55;1.30;;;27.90;91.50;;;;;;5071874;28;20098;-73
2022/07/24 12:17:17;;;;;;;1.92;1.35;;;27.80;91.50;;;;;;5071863;28;20048;-73
2022/07/24 12:19:54;;;;;;;1.83;1.10;;;27.80;91.40;;;;;;5071888;28;20040;-74
2022/07/24 12:22:22;;;;;;;1.25;1.10;;;28.00;91.80;;;;;;5071677;28;20044;-74
2022/07/24 12:24:49;;;;;;;2.20;1.27;;;28.20;91.60;;;;;;5071773;28;20083;-73
2022/07/24 12:27:36;;;;;;;1.70;1.35;;;28.30;91.50;;;;;;5071425;28;20466;-73
2022/07/24 12:30:03;;;;;;;2.25;1.30;;;28.20;90.80;;;;;;5111436;27;20065;-74
2022/07/24 12:32:29;;;;;;;2.42;1.48;;;28.10;91.10;;;;;;5125695;27;20043;-74
2022/07/24 12:34:55;;;;;;;1.52;1.17;;;28.30;90.80;;;;;;5075164;28;20040;-73
2022/07/24 12:37:22;;;;;;;1.73;1.20;;;28.30;90.60;;;;;;5074715;28;20044;-73
2022/07/24 12:39:50;;;;;;;1.80;1.20;;;28.30;90.90;;;;;;5125820;27;20076;-73
2022/07/24 12:42:17;;;;;;;2.17;1.20;;;28.40;90.60;;;;;;5074426;28;20040;-74
2022/07/24 12:44:44;;;;;;;1.63;1.20;;;28.60;90.60;;;;;;5125888;27;20404;-74
2022/07/24 12:47:13;;;;;;;2.20;1.30;;;28.60;90.40;;;;;;5074613;28;20044;-74
2022/07/24 12:49:41;;;;;;;1.35;1.10;;;28.70;90.60;;;;;;5093108;28;20113;-73
2022/07/24 12:52:23;;;;;;;1.45;1.00;;;28.80;90.80;;;;;;5092261;28;20063;-73
2022/07/24 12:54:50;;;;;;;1.73;1.20;;;28.80;90.30;;;;;;5091334;28;20044;-73
2022/07/24 12:57:16;;;;;;;1.42;1.10;;;28.60;90.80;;;;;;5091368;28;20050;-73